GCXO

Tenerife Norte Airport

Tenerife Island, Spain
METAR GCXO 172000Z 32015KT 280V340 9000 0900SE BCFG FEW000 BKN003 17/17 Q1021 NOSIG
Observed Flight Rules
Oct-17 @ 20:00 UTC (30 minutes ago) Instrument Flight Rules
Wind Visibility Clouds Conditions
320° at 15 knots 8,996 meters
  • Few
  • Broken at 300' AGL
  • Patches of
  • Fog
Temperatures Readings
Current 17°C / 63°F
Dewpoint 17°C / 63°F
Humidity 100%
Altimeter 30.15" Hg
Pressure 1021 hPa
Elevation 632
METAR GCXO 172000Z 32015KT 280V340 9000 0900SE BCFG FEW000 BKN003 17/17 Q1021 NOSIG
Observed Flight Rules
Oct-17 @ 20:00 UTC
(30 minutes ago)
LIFR
Wind Visibility
320° at 15 knots 8,996 meters
Clouds
  • Few
  • Broken at 300' AGL
Conditions
  • Patches of
  • Fog
Temperature Dewpoint
17°C / 63°F 17°C / 63°F
Humidity Altimeter Pressure
100% 30.15" Hg 1021 hPa